Time;durP1;ratioP1;P1;durP2;ratioP2;P2;SDS_P1;SDS_P2;PMS_P1;PMS_P2;Temp;Humidity;BMP_temperature;BMP_pressure;BME280_temperature;BME280_humidity;BME280_pressure;Samples;Min_cycle;Max_cycle;Signal;HPM_P1;HPM_P2
2023/04/10 00:01:39;;;;;;;41.97;28.40;;;8.60;99.90;;;;;;4772377;30;20066;-81
2023/04/10 00:04:05;;;;;;;39.10;28.03;;;8.60;99.90;;;;;;4788243;29;20051;-81
2023/04/10 00:06:32;;;;;;;42.77;29.53;;;8.60;99.90;;;;;;4772451;30;20146;-81
2023/04/10 00:08:58;;;;;;;42.27;29.10;;;8.50;99.90;;;;;;4788253;30;20051;-81
2023/04/10 00:11:25;;;;;;;40.80;28.97;;;8.50;99.90;;;;;;4772145;30;20627;-81
2023/04/10 00:13:51;;;;;;;40.40;28.17;;;8.50;99.90;;;;;;4772309;30;20308;-80
2023/04/10 00:16:17;;;;;;;43.70;30.30;;;8.50;99.90;;;;;;4788863;30;20370;-80
2023/04/10 00:18:43;;;;;;;42.23;29.80;;;8.50;99.90;;;;;;4788163;30;20292;-80
2023/04/10 00:21:08;;;;;;;41.13;29.50;;;8.40;99.90;;;;;;4772523;30;20142;-80
2023/04/10 00:23:34;;;;;;;42.07;28.80;;;8.40;99.90;;;;;;4772205;30;20055;-80
2023/04/10 00:26:00;;;;;;;44.93;30.27;;;8.40;99.90;;;;;;4773006;30;20060;-80
2023/04/10 00:28:26;;;;;;;40.73;28.13;;;8.40;99.90;;;;;;4771993;30;20509;-80
2023/04/10 00:30:52;;;;;;;43.03;29.73;;;8.40;99.90;;;;;;4771977;30;20338;-80
2023/04/10 00:33:18;;;;;;;44.80;30.13;;;8.40;99.90;;;;;;4788126;30;20047;-80
2023/04/10 00:35:43;;;;;;;40.87;29.27;;;8.40;99.90;;;;;;4788223;29;20397;-80
2023/04/10 00:38:09;;;;;;;43.47;28.70;;;8.30;99.90;;;;;;4772577;30;20486;-80
2023/04/10 00:40:35;;;;;;;44.10;30.37;;;8.30;99.90;;;;;;4772176;30;20079;-80
2023/04/10 00:43:01;;;;;;;45.83;30.80;;;8.30;99.90;;;;;;4788451;30;20051;-80
2023/04/10 00:45:26;;;;;;;42.17;30.13;;;8.30;99.90;;;;;;4771784;30;20059;-80
2023/04/10 00:47:53;;;;;;;46.27;30.37;;;8.20;99.90;;;;;;4787877;30;20066;-80
2023/04/10 00:50:20;;;;;;;46.70;31.53;;;8.20;99.90;;;;;;4787954;30;20131;-80
2023/04/10 00:52:48;;;;;;;46.07;30.63;;;8.20;99.90;;;;;;4787930;29;20293;-80
2023/04/10 00:55:14;;;;;;;44.37;30.97;;;8.10;99.90;;;;;;4772330;30;20454;-80
2023/04/10 00:57:45;;;;;;;46.20;31.83;;;8.10;99.90;;;;;;4758412;29;20305;-80
2023/04/10 01:00:15;;;;;;;48.70;30.50;;;8.10;99.90;;;;;;4791197;30;20289;-80
2023/04/10 01:02:40;;;;;;;41.73;29.27;;;8.10;99.90;;;;;;4775684;30;20301;-80
2023/04/10 01:05:08;;;;;;;43.87;30.00;;;8.00;99.90;;;;;;4791289;29;20915;-80
2023/04/10 01:07:46;;;;;;;42.90;30.77;;;8.00;99.90;;;;;;4774871;30;20055;-81
2023/04/10 01:10:23;;;;;;;42.30;29.77;;;8.00;99.90;;;;;;4791268;30;20289;-80
2023/04/10 01:13:05;;;;;;;43.47;30.30;;;8.00;99.90;;;;;;4790962;30;20335;-80
2023/04/10 01:15:40;;;;;;;43.20;29.97;;;8.00;99.90;;;;;;4791660;30;20296;-80
2023/04/10 01:18:25;;;;;;;42.30;30.67;;;7.90;99.90;;;;;;4790895;30;20304;-80
2023/04/10 01:20:51;;;;;;;44.87;30.50;;;7.90;99.90;;;;;;4791876;30;20133;-81
2023/04/10 01:23:35;;;;;;;41.07;29.03;;;7.90;99.90;;;;;;4790747;30;20176;-81
2023/04/10 01:26:07;;;;;;;40.60;30.03;;;7.90;99.90;;;;;;4790752;30;20100;-81
2023/04/10 01:28:42;;;;;;;40.47;28.80;;;7.90;99.90;;;;;;4790744;30;20646;-81
2023/04/10 01:31:12;;;;;;;39.78;28.67;;;7.90;99.90;;;;;;4790593;30;20308;-80
2023/04/10 01:33:44;;;;;;;41.33;30.27;;;7.80;99.90;;;;;;4791182;30;20112;-80
2023/04/10 01:36:11;;;;;;;40.80;28.93;;;7.80;99.90;;;;;;4775487;30;20292;-80
2023/04/10 01:38:42;;;;;;;38.30;27.97;;;7.80;99.90;;;;;;4790744;30;20642;-81
2023/04/10 01:41:07;;;;;;;40.23;30.40;;;7.80;99.90;;;;;;4790588;30;20281;-80
2023/04/10 01:43:33;;;;;;;40.83;29.33;;;7.70;99.90;;;;;;4790568;30;20307;-80
2023/04/10 01:46:01;;;;;;;45.50;30.27;;;7.70;99.90;;;;;;4790258;30;20055;-79
2023/04/10 01:48:28;;;;;;;41.13;28.87;;;7.70;99.90;;;;;;4790334;30;20277;-79
2023/04/10 01:50:55;;;;;;;41.87;29.27;;;7.70;99.90;;;;;;4790215;29;20292;-80
2023/04/10 01:53:22;;;;;;;42.40;29.97;;;7.70;99.90;;;;;;4790191;30;20662;-79
2023/04/10 01:55:49;;;;;;;41.27;28.43;;;7.70;99.90;;;;;;4790158;30;20293;-80
2023/04/10 01:58:16;;;;;;;41.70;29.17;;;7.70;99.90;;;;;;4790179;29;20301;-80
2023/04/10 02:00:42;;;;;;;41.97;28.03;;;7.70;99.90;;;;;;4774043;30;20321;-80
2023/04/10 02:03:11;;;;;;;42.70;28.77;;;7.60;99.90;;;;;;4790029;30;20368;-80
2023/04/10 02:05:43;;;;;;;39.73;28.20;;;7.60;99.90;;;;;;4790587;30;20399;-79
2023/04/10 02:08:19;;;;;;;40.17;28.50;;;7.60;99.90;;;;;;4790387;29;20734;-80
2023/04/10 02:10:52;;;;;;;41.40;28.43;;;7.60;99.90;;;;;;4774696;30;20308;-80
2023/04/10 02:13:21;;;;;;;41.72;29.38;;;7.60;99.90;;;;;;4790749;30;20320;-80
2023/04/10 02:15:49;;;;;;;41.83;28.25;;;7.60;99.90;;;;;;4789565;30;20089;-80
2023/04/10 02:18:17;;;;;;;39.47;28.37;;;7.60;99.90;;;;;;4789909;30;20055;-80
2023/04/10 02:20:44;;;;;;;41.63;29.23;;;7.60;99.90;;;;;;4789787;29;20292;-80
2023/04/10 02:23:10;;;;;;;38.07;28.63;;;7.50;99.90;;;;;;4789703;30;20305;-80
2023/04/10 02:25:36;;;;;;;41.93;30.67;;;7.50;99.90;;;;;;4789699;30;20295;-80
2023/04/10 02:28:05;;;;;;;41.73;29.37;;;7.50;99.90;;;;;;4789669;30;20376;-80
2023/04/10 02:30:32;;;;;;;43.33;28.67;;;7.50;99.90;;;;;;4789603;30;20047;-80
2023/04/10 02:32:58;;;;;;;41.95;30.13;;;7.50;99.90;;;;;;4789514;30;20353;-80
2023/04/10 02:35:24;;;;;;;44.33;29.83;;;7.50;99.90;;;;;;4758889;30;20063;-80
2023/04/10 02:37:50;;;;;;;43.40;30.33;;;7.40;99.90;;;;;;4774102;30;20620;-81
2023/04/10 02:40:15;;;;;;;42.57;29.77;;;7.40;99.90;;;;;;4789922;30;20299;-80
2023/04/10 02:42:41;;;;;;;41.53;29.17;;;7.40;99.90;;;;;;4789397;30;20058;-81
2023/04/10 02:45:08;;;;;;;42.67;29.67;;;7.40;99.90;;;;;;4774190;30;20051;-81
2023/04/10 02:47:34;;;;;;;40.67;28.30;;;7.40;99.90;;;;;;4789670;30;20107;-81
2023/04/10 02:50:00;;;;;;;42.80;29.77;;;7.40;99.90;;;;;;4773448;30;20711;-81
2023/04/10 02:52:25;;;;;;;43.77;30.63;;;7.40;99.90;;;;;;4789278;30;20051;-81
2023/04/10 02:54:51;;;;;;;43.33;30.33;;;7.40;99.90;;;;;;4789946;30;20466;-81
2023/04/10 02:57:17;;;;;;;43.47;31.40;;;7.40;99.90;;;;;;4789529;30;20058;-80
2023/04/10 02:59:44;;;;;;;43.08;30.75;;;7.40;99.90;;;;;;4789984;30;20512;-81
2023/04/10 03:02:10;;;;;;;43.87;31.37;;;7.40;99.90;;;;;;4789394;29;20066;-80
2023/04/10 03:04:36;;;;;;;45.33;31.30;;;7.40;99.90;;;;;;4789109;30;20134;-80
2023/04/10 03:07:01;;;;;;;41.73;30.07;;;7.40;99.90;;;;;;4789080;30;20679;-80
2023/04/10 03:09:27;;;;;;;43.17;31.17;;;7.30;99.90;;;;;;4789483;30;20102;-80
2023/04/10 03:11:53;;;;;;;47.47;32.07;;;7.30;99.90;;;;;;4789641;29;20057;-80
2023/04/10 03:14:19;;;;;;;43.60;31.33;;;7.40;99.90;;;;;;4788903;30;20523;-79
2023/04/10 03:16:46;;;;;;;44.50;31.57;;;7.40;99.90;;;;;;4789618;30;20047;-80
2023/04/10 03:19:13;;;;;;;43.13;31.23;;;7.30;99.90;;;;;;4773026;30;20063;-80
2023/04/10 03:21:38;;;;;;;44.00;30.23;;;7.30;99.90;;;;;;4772797;30;20304;-80
2023/04/10 03:24:05;;;;;;;41.07;30.23;;;7.30;99.90;;;;;;4788731;29;20309;-80
2023/04/10 03:26:30;;;;;;;45.42;31.55;;;7.30;99.90;;;;;;4772989;30;20059;-80
2023/04/10 03:28:56;;;;;;;42.40;29.63;;;7.30;99.90;;;;;;4788700;30;20062;-80
2023/04/10 03:31:22;;;;;;;45.70;31.23;;;7.30;99.90;;;;;;4788901;29;20051;-79
2023/04/10 03:33:48;;;;;;;41.93;29.57;;;7.30;99.90;;;;;;4788732;30;20077;-80
2023/04/10 03:36:14;;;;;;;44.00;31.17;;;7.30;99.90;;;;;;4758752;30;20185;-80
2023/04/10 03:38:40;;;;;;;41.93;29.57;;;7.30;99.90;;;;;;4772723;30;20057;-80
2023/04/10 03:41:06;;;;;;;42.80;29.67;;;7.30;99.90;;;;;;4772845;30;20061;-80
2023/04/10 03:43:32;;;;;;;43.33;29.52;;;7.30;99.90;;;;;;4789201;30;20373;-80
2023/04/10 03:45:57;;;;;;;41.30;29.90;;;7.30;99.90;;;;;;4788760;30;20055;-80
2023/04/10 03:48:26;;;;;;;41.53;29.93;;;7.30;99.90;;;;;;4788111;29;20134;-80
2023/04/10 03:50:53;;;;;;;43.15;29.25;;;7.20;99.90;;;;;;4788421;30;20051;-80
2023/04/10 03:53:19;;;;;;;42.63;29.63;;;7.30;99.90;;;;;;4788431;30;20046;-80
2023/04/10 03:55:45;;;;;;;39.90;29.80;;;7.20;99.90;;;;;;4788673;30;20481;-80
2023/04/10 03:58:11;;;;;;;39.40;28.97;;;7.30;99.90;;;;;;4772416;30;20512;-80
2023/04/10 04:00:37;;;;;;;42.72;27.92;;;7.30;99.90;;;;;;4788369;29;20067;-80
2023/04/10 04:03:04;;;;;;;41.60;30.47;;;7.30;99.90;;;;;;4757815;30;20481;-80
2023/04/10 04:05:30;;;;;;;36.97;27.60;;;7.30;99.90;;;;;;4788331;30;20055;-80
2023/04/10 04:07:56;;;;;;;44.30;27.60;;;7.40;99.90;;;;;;4772455;30;20105;-80
2023/04/10 04:10:23;;;;;;;39.30;27.97;;;7.40;99.90;;;;;;4788857;30;20328;-80
2023/04/10 04:12:49;;;;;;;39.05;27.52;;;7.40;99.90;;;;;;4788232;30;20130;-80
2023/04/10 04:15:15;;;;;;;40.25;28.20;;;7.50;99.90;;;;;;4788230;30;20447;-80
2023/04/10 04:17:41;;;;;;;38.50;27.97;;;7.50;99.90;;;;;;4772383;30;20059;-80
2023/04/10 04:20:07;;;;;;;38.78;27.40;;;7.50;99.90;;;;;;4788154;30;20285;-80
2023/04/10 04:22:33;;;;;;;35.20;26.50;;;7.50;99.90;;;;;;4788156;30;20051;-80
2023/04/10 04:24:59;;;;;;;37.93;26.90;;;7.50;99.90;;;;;;4788310;30;20052;-80
2023/04/10 04:27:24;;;;;;;37.20;27.40;;;7.60;99.90;;;;;;4772511;30;20488;-80
2023/04/10 04:29:50;;;;;;;39.37;26.27;;;7.60;99.90;;;;;;4788203;30;20147;-80
2023/04/10 04:32:16;;;;;;;37.30;25.40;;;7.60;99.90;;;;;;4773167;30;20066;-80
2023/04/10 04:34:42;;;;;;;38.50;26.70;;;7.60;99.90;;;;;;4791681;30;20536;-79
2023/04/10 04:37:07;;;;;;;35.03;25.47;;;7.60;99.90;;;;;;4775543;30;20087;-80
2023/04/10 04:39:33;;;;;;;37.63;27.43;;;7.60;99.90;;;;;;4791538;30;20116;-80
2023/04/10 04:42:00;;;;;;;35.70;25.00;;;7.60;99.90;;;;;;4791454;30;20138;-81
2023/04/10 04:44:26;;;;;;;34.40;25.40;;;7.70;99.90;;;;;;4775401;30;20365;-80
2023/04/10 04:46:51;;;;;;;33.83;24.10;;;7.60;99.90;;;;;;4775633;30;20055;-80
2023/04/10 04:49:17;;;;;;;34.23;24.27;;;7.70;99.90;;;;;;4791548;30;20526;-80
2023/04/10 04:51:43;;;;;;;32.63;24.03;;;7.70;99.90;;;;;;4791368;29;20051;-80
2023/04/10 04:54:08;;;;;;;32.23;23.60;;;7.70;99.90;;;;;;4791208;30;20481;-81
2023/04/10 04:56:34;;;;;;;33.97;23.20;;;7.70;99.90;;;;;;4790990;30;20054;-80
2023/04/10 04:59:00;;;;;;;31.17;24.27;;;7.70;99.90;;;;;;4790904;30;20516;-80
2023/04/10 05:01:25;;;;;;;33.47;24.37;;;7.70;99.90;;;;;;4791148;30;20055;-80
2023/04/10 05:03:51;;;;;;;31.47;23.50;;;7.70;99.90;;;;;;4791298;30;20055;-80
2023/04/10 05:06:17;;;;;;;29.93;22.37;;;7.70;99.90;;;;;;4791018;30;20051;-80
2023/04/10 05:08:43;;;;;;;34.20;24.57;;;7.70;99.90;;;;;;4791555;30;20051;-80
2023/04/10 05:11:09;;;;;;;32.10;22.73;;;7.70;99.90;;;;;;4791017;30;20296;-80
2023/04/10 05:13:34;;;;;;;30.90;22.77;;;7.70;99.90;;;;;;4775327;30;20094;-80
2023/04/10 05:16:00;;;;;;;33.50;23.33;;;7.70;99.90;;;;;;4774939;30;20070;-80
2023/04/10 05:18:26;;;;;;;31.70;21.33;;;7.70;99.90;;;;;;4790854;30;20548;-80
2023/04/10 05:20:52;;;;;;;29.80;22.23;;;7.70;99.90;;;;;;4774720;30;20143;-80
2023/04/10 05:23:18;;;;;;;30.20;22.13;;;7.80;99.90;;;;;;4790793;30;20134;-80
2023/04/10 05:25:44;;;;;;;32.07;22.30;;;7.80;99.90;;;;;;4774680;30;20378;-80
2023/04/10 05:28:09;;;;;;;29.07;20.87;;;7.80;99.90;;;;;;4775604;30;20054;-80
2023/04/10 05:30:35;;;;;;;31.33;21.57;;;7.90;99.90;;;;;;4775009;30;20058;-80
2023/04/10 05:33:01;;;;;;;29.07;20.77;;;7.90;99.90;;;;;;4791096;30;20129;-80
2023/04/10 05:35:27;;;;;;;29.30;20.87;;;7.90;99.90;;;;;;4774681;30;20059;-80
2023/04/10 05:37:52;;;;;;;28.97;21.27;;;7.90;99.90;;;;;;4774536;30;20437;-80
2023/04/10 05:40:19;;;;;;;30.67;22.07;;;8.00;99.90;;;;;;4790476;30;20112;-80
2023/04/10 05:42:45;;;;;;;28.60;20.50;;;8.00;99.90;;;;;;4790157;29;20061;-80
2023/04/10 05:45:11;;;;;;;27.10;20.77;;;8.10;99.90;;;;;;4774342;30;20297;-80
2023/04/10 05:47:36;;;;;;;31.00;21.57;;;8.10;99.90;;;;;;4790319;30;20058;-80
2023/04/10 05:50:02;;;;;;;26.63;19.83;;;8.20;99.90;;;;;;4790320;30;20112;-80
2023/04/10 05:52:28;;;;;;;27.47;20.20;;;8.20;99.90;;;;;;4790290;30;20054;-81
2023/04/10 05:54:54;;;;;;;29.63;20.03;;;8.30;99.90;;;;;;4790732;30;20137;-80
2023/04/10 05:57:19;;;;;;;25.80;19.53;;;8.30;99.90;;;;;;4790697;30;20477;-80
2023/04/10 05:59:45;;;;;;;26.10;18.63;;;8.40;99.90;;;;;;4790782;29;20063;-80
2023/04/10 06:02:11;;;;;;;27.87;19.47;;;8.40;99.90;;;;;;4790734;30;20477;-81
2023/04/10 06:04:37;;;;;;;27.60;17.90;;;8.50;99.90;;;;;;4774021;30;20134;-81
2023/04/10 06:07:02;;;;;;;26.53;18.53;;;8.50;99.90;;;;;;4790572;29;20397;-80
2023/04/10 06:09:28;;;;;;;22.80;16.90;;;8.60;99.90;;;;;;4790064;30;20055;-81
2023/04/10 06:11:55;;;;;;;24.10;18.47;;;8.70;99.90;;;;;;4789960;30;20538;-80
2023/04/10 06:14:21;;;;;;;25.57;18.53;;;8.80;99.90;;;;;;4789996;29;20058;-80
2023/04/10 06:16:47;;;;;;;25.57;18.63;;;8.90;99.90;;;;;;4789878;30;20292;-81
2023/04/10 06:19:13;;;;;;;25.20;17.23;;;9.20;99.90;;;;;;4789785;29;20293;-80
2023/04/10 06:21:39;;;;;;;21.83;15.73;;;9.50;99.90;;;;;;4774622;30;20055;-80
2023/04/10 06:24:05;;;;;;;21.97;15.70;;;10.10;99.90;;;;;;4789694;30;20095;-80
2023/04/10 06:26:30;;;;;;;22.37;16.67;;;10.60;99.90;;;;;;4773897;30;20108;-80
2023/04/10 06:28:56;;;;;;;23.00;16.77;;;11.10;99.90;;;;;;4789679;30;20301;-80
2023/04/10 06:31:23;;;;;;;21.67;16.30;;;11.70;99.90;;;;;;4789574;30;20069;-81
2023/04/10 06:33:49;;;;;;;20.90;15.63;;;12.40;99.90;;;;;;4759061;30;20066;-80
2023/04/10 06:36:15;;;;;;;20.60;14.87;;;13.00;99.90;;;;;;4789535;30;20389;-80
2023/04/10 06:38:41;;;;;;;21.17;15.03;;;13.70;99.90;;;;;;4789535;30;20288;-80
2023/04/10 06:41:07;;;;;;;18.63;14.23;;;14.40;99.90;;;;;;4789443;30;20292;-80
2023/04/10 06:43:34;;;;;;;18.80;15.20;;;14.40;99.90;;;;;;4789827;29;20047;-79
2023/04/10 06:46:00;;;;;;;18.33;14.63;;;13.90;99.90;;;;;;4773335;30;20289;-79
2023/04/10 06:48:26;;;;;;;19.10;14.53;;;13.60;99.90;;;;;;4773489;30;20766;-79
2023/04/10 06:50:52;;;;;;;20.53;14.97;;;13.50;99.90;;;;;;4773383;30;20777;-79
2023/04/10 06:53:17;;;;;;;18.83;14.10;;;14.20;99.90;;;;;;4758626;30;20293;-79
2023/04/10 06:55:43;;;;;;;19.87;14.50;;;14.90;99.60;;;;;;4772758;30;20062;-80
2023/04/10 06:58:09;;;;;;;17.40;14.13;;;15.50;97.80;;;;;;4789124;30;20513;-81
2023/04/10 07:00:34;;;;;;;19.20;14.93;;;16.10;95.90;;;;;;4773241;30;20066;-78
2023/04/10 07:03:00;;;;;;;19.43;14.53;;;16.20;93.00;;;;;;4773222;30;20052;-80
2023/04/10 07:05:26;;;;;;;19.90;14.50;;;16.10;91.50;;;;;;4789487;29;20055;-80
2023/04/10 07:07:52;;;;;;;16.73;14.03;;;15.90;90.50;;;;;;4788980;30;20473;-80
2023/04/10 07:10:17;;;;;;;20.80;14.90;;;16.10;90.70;;;;;;4789425;30;20047;-80
2023/04/10 07:12:43;;;;;;;18.90;14.80;;;16.50;90.40;;;;;;4773135;30;20055;-81
2023/04/10 07:15:11;;;;;;;19.63;15.50;;;16.50;82.20;;;;;;4788887;29;20057;-85
2023/04/10 07:17:37;;;;;;;19.33;14.67;;;16.70;83.70;;;;;;4772960;30;20059;-87
2023/04/10 07:20:03;;;;;;;19.43;15.00;;;17.00;83.10;;;;;;4773039;30;20477;-86
2023/04/10 07:22:29;;;;;;;17.43;13.90;;;17.20;77.40;;;;;;4758757;30;20553;-86
2023/04/10 07:24:55;;;;;;;21.23;14.03;;;17.40;77.50;;;;;;4773325;30;20419;-88
2023/04/10 07:27:22;;;;;;;16.93;12.90;;;17.70;75.50;;;;;;4757665;30;20297;-88
2023/04/10 07:29:47;;;;;;;16.57;13.57;;;18.00;72.30;;;;;;4773012;30;20112;-86
2023/04/10 07:32:13;;;;;;;17.97;13.33;;;18.30;71.50;;;;;;4743219;30;20101;-85
2023/04/10 07:34:41;;;;;;;16.67;13.47;;;18.60;64.40;;;;;;4772773;30;20142;-91
2023/04/10 07:37:06;;;;;;;16.43;13.30;;;18.80;66.10;;;;;;4758471;30;20067;-89
2023/04/10 07:39:32;;;;;;;15.33;12.20;;;19.00;65.80;;;;;;4773870;30;20059;-89
2023/04/10 07:41:58;;;;;;;17.57;13.30;;;18.60;63.60;;;;;;4758121;30;20054;-90
2023/04/10 07:44:25;;;;;;;16.00;12.63;;;18.50;63.80;;;;;;4772819;30;20051;-90
2023/04/10 07:46:51;;;;;;;18.23;14.40;;;18.20;63.30;;;;;;4788723;29;20128;-91
2023/04/10 07:49:17;;;;;;;15.07;12.70;;;18.10;63.30;;;;;;4772682;30;20091;-91
2023/04/10 07:51:43;;;;;;;14.47;12.60;;;17.80;63.50;;;;;;4772935;30;20104;-88
2023/04/10 07:54:08;;;;;;;15.47;11.87;;;17.50;63.30;;;;;;4772302;30;20560;-87
2023/04/10 07:56:34;;;;;;;16.13;13.53;;;16.90;62.40;;;;;;4772738;30;20059;-87
2023/04/10 07:59:00;;;;;;;14.43;12.07;;;16.60;64.20;;;;;;4772208;30;20069;-83
2023/04/10 08:01:27;;;;;;;15.00;11.80;;;16.40;64.40;;;;;;4758280;30;20120;-87
2023/04/10 08:03:54;;;;;;;14.93;12.93;;;16.20;64.80;;;;;;4772018;30;20053;-77
2023/04/10 08:06:20;;;;;;;17.13;12.87;;;16.00;65.50;;;;;;4772521;30;20066;-88
2023/04/10 08:08:46;;;;;;;16.37;11.93;;;15.70;65.60;;;;;;4776031;30;20063;-85
2023/04/10 08:11:25;;;;;;;16.63;12.47;;;15.40;66.80;;;;;;4791977;30;20061;-83
2023/04/10 08:13:52;;;;;;;15.17;12.27;;;15.20;66.50;;;;;;4776841;30;20059;-84
2023/04/10 08:16:25;;;;;;;15.97;12.07;;;15.00;67.90;;;;;;4792395;30;20054;-87
2023/04/10 08:18:51;;;;;;;16.10;12.43;;;14.90;68.70;;;;;;4791893;30;20055;-86
2023/04/10 08:21:18;;;;;;;14.67;11.80;;;14.90;68.90;;;;;;4791848;30;20059;-85
2023/04/10 08:23:46;;;;;;;15.17;11.77;;;14.70;68.40;;;;;;4775718;30;20051;-85
2023/04/10 08:26:12;;;;;;;14.57;12.23;;;14.60;69.60;;;;;;4775847;30;20066;-84
2023/04/10 08:28:38;;;;;;;14.60;11.80;;;14.60;71.20;;;;;;4775784;30;20092;-87
2023/04/10 08:31:04;;;;;;;14.53;11.80;;;14.60;72.00;;;;;;4791715;30;20051;-85
2023/04/10 08:33:30;;;;;;;15.37;11.77;;;14.60;72.40;;;;;;4792153;29;20174;-86
2023/04/10 08:35:56;;;;;;;15.40;12.27;;;14.50;72.10;;;;;;4775712;30;20119;-86
2023/04/10 08:38:23;;;;;;;14.97;11.97;;;14.50;73.60;;;;;;4791567;30;20296;-86
2023/04/10 08:40:50;;;;;;;14.63;12.17;;;14.50;74.00;;;;;;4792027;30;20056;-85
2023/04/10 08:43:16;;;;;;;16.47;11.83;;;14.50;74.70;;;;;;4792194;30;20638;-78
2023/04/10 08:45:42;;;;;;;16.67;11.40;;;14.60;74.60;;;;;;4791480;29;20358;-78
2023/04/10 08:48:10;;;;;;;15.90;11.83;;;14.60;75.80;;;;;;4791411;30;20518;-79
2023/04/10 08:50:40;;;;;;;15.73;10.87;;;14.60;75.20;;;;;;4791329;29;20409;-79
2023/04/10 08:53:12;;;;;;;14.30;10.83;;;14.70;75.60;;;;;;4791239;30;20317;-77
2023/04/10 08:55:42;;;;;;;14.40;11.13;;;14.80;75.60;;;;;;4791436;29;20372;-79
2023/04/10 08:58:10;;;;;;;14.30;10.97;;;14.90;75.90;;;;;;4790984;29;20301;-82
2023/04/10 09:00:39;;;;;;;12.17;9.90;;;15.00;75.70;;;;;;4791154;29;20295;-83
2023/04/10 09:03:10;;;;;;;14.60;11.43;;;14.90;73.60;;;;;;4791070;30;20376;-81
2023/04/10 09:05:36;;;;;;;14.00;11.33;;;15.00;74.00;;;;;;4791667;30;20623;-80
2023/04/10 09:08:03;;;;;;;14.07;9.87;;;15.10;75.10;;;;;;4791060;30;20285;-80
2023/04/10 09:10:29;;;;;;;15.20;10.40;;;15.10;74.90;;;;;;4775212;30;20462;-81
2023/04/10 09:12:55;;;;;;;13.43;10.33;;;15.20;74.40;;;;;;4791239;30;20297;-80
2023/04/10 09:15:20;;;;;;;12.57;10.40;;;15.20;74.40;;;;;;4775174;30;20062;-81
2023/04/10 09:17:57;;;;;;;13.40;10.37;;;15.10;73.30;;;;;;4774971;30;20389;-81
2023/04/10 09:20:25;;;;;;;11.87;9.83;;;15.20;74.30;;;;;;4774782;30;20107;-80
2023/04/10 09:22:52;;;;;;;12.20;10.37;;;15.10;73.60;;;;;;4791043;30;20055;-79
2023/04/10 09:25:35;;;;;;;12.63;9.97;;;15.30;74.80;;;;;;4790796;29;20288;-79
2023/04/10 09:28:03;;;;;;;12.07;9.67;;;15.30;71.60;;;;;;4791065;30;20141;-86
2023/04/10 09:30:39;;;;;;;15.67;11.57;;;15.30;72.50;;;;;;4760049;30;20297;-84
2023/04/10 09:33:20;;;;;;;12.03;9.43;;;15.20;70.00;;;;;;4790667;30;20292;-83
2023/04/10 09:35:46;;;;;;;12.30;9.50;;;15.10;72.00;;;;;;4790613;30;20412;-85
2023/04/10 09:38:16;;;;;;;13.10;9.20;;;14.90;71.30;;;;;;4790523;30;20289;-84
2023/04/10 09:40:43;;;;;;;11.83;9.30;;;14.90;70.70;;;;;;4790960;29;20052;-84
2023/04/10 09:43:25;;;;;;;11.53;8.40;;;15.00;73.30;;;;;;4790451;30;20070;-84
2023/04/10 09:45:56;;;;;;;11.70;9.10;;;15.00;71.80;;;;;;4790430;29;20638;-85
2023/04/10 09:48:23;;;;;;;11.67;8.10;;;15.10;72.90;;;;;;4790371;30;20062;-78
2023/04/10 09:50:50;;;;;;;13.03;8.90;;;15.20;73.40;;;;;;4790413;30;20062;-80
2023/04/10 09:53:20;;;;;;;11.17;8.90;;;15.20;73.30;;;;;;4790311;29;20047;-82
2023/04/10 09:55:47;;;;;;;13.90;9.40;;;15.20;71.80;;;;;;4790773;30;20721;-82
2023/04/10 09:58:15;;;;;;;10.40;8.67;;;15.20;72.60;;;;;;4790088;29;20063;-86
2023/04/10 10:00:43;;;;;;;12.80;9.50;;;15.20;73.20;;;;;;4790159;30;20409;-80
2023/04/10 10:03:11;;;;;;;12.90;9.43;;;15.30;73.40;;;;;;4790136;30;20062;-75
2023/04/10 10:05:55;;;;;;;12.13;9.37;;;15.30;73.00;;;;;;4790366;29;20454;-74
2023/04/10 10:08:21;;;;;;;11.47;9.37;;;15.20;70.10;;;;;;4790587;30;20050;-78
2023/04/10 10:10:52;;;;;;;11.73;8.47;;;15.20;71.80;;;;;;4790763;29;20477;-77
2023/04/10 10:13:47;;;;;;;11.37;9.37;;;15.20;70.60;;;;;;4790056;30;20481;-77
2023/04/10 10:16:13;;;;;;;11.65;9.32;;;15.10;70.20;;;;;;4783137;30;20300;-78
2023/04/10 10:18:52;;;;;;;11.93;9.30;;;15.10;72.40;;;;;;4789789;30;20055;-81
2023/04/10 10:21:19;;;;;;;11.13;8.63;;;15.10;72.40;;;;;;4789916;30;20059;-80
2023/04/10 10:23:47;;;;;;;12.17;9.53;;;15.00;73.10;;;;;;4789999;29;20309;-87
2023/04/10 10:26:14;;;;;;;11.77;9.17;;;15.00;72.00;;;;;;4744991;30;20485;-83
2023/04/10 10:28:41;;;;;;;11.03;9.30;;;14.90;72.40;;;;;;4789734;30;20296;-85
2023/04/10 10:31:07;;;;;;;11.03;9.10;;;14.90;73.20;;;;;;4788851;29;20753;-83
2023/04/10 10:33:36;;;;;;;11.40;9.00;;;14.90;73.60;;;;;;4789830;29;20289;-82
2023/04/10 10:36:03;;;;;;;12.80;8.27;;;15.00;73.80;;;;;;4773531;30;20055;-85
2023/04/10 10:38:30;;;;;;;11.50;8.53;;;15.10;74.60;;;;;;4773540;30;20676;-84
2023/04/10 10:41:17;;;;;;;11.33;9.10;;;15.20;73.20;;;;;;4789484;30;20095;-83
2023/04/10 10:44:01;;;;;;;11.73;9.43;;;15.20;72.30;;;;;;4789431;30;20315;-82
2023/04/10 10:46:49;;;;;;;10.97;8.87;;;15.30;73.60;;;;;;4789472;30;20535;-82
2023/04/10 10:49:15;;;;;;;11.47;8.93;;;15.30;72.80;;;;;;4789971;30;20288;-84
2023/04/10 10:51:49;;;;;;;11.60;8.43;;;15.40;74.00;;;;;;4773458;30;20300;-83
2023/04/10 10:54:33;;;;;;;11.47;8.53;;;15.40;73.50;;;;;;4790146;30;20047;-83
2023/04/10 10:57:00;;;;;;;11.35;8.88;;;15.50;72.30;;;;;;4758484;30;20087;-85
2023/04/10 10:59:44;;;;;;;10.17;8.07;;;15.50;73.10;;;;;;4789410;29;20063;-83
2023/04/10 11:02:15;;;;;;;10.50;8.20;;;15.50;71.30;;;;;;4789715;30;20059;-84
2023/04/10 11:04:42;;;;;;;10.20;7.47;;;15.50;72.80;;;;;;4789507;30;20055;-75
2023/04/10 11:07:08;;;;;;;11.00;8.77;;;15.50;73.00;;;;;;4788951;30;20319;-83
2023/04/10 11:09:46;;;;;;;12.30;8.37;;;15.50;72.70;;;;;;4772925;30;20101;-81
2023/04/10 11:12:12;;;;;;;9.90;7.90;;;15.50;73.00;;;;;;4789039;30;20059;-81
2023/04/10 11:14:39;;;;;;;9.93;7.47;;;15.50;73.10;;;;;;4788908;29;20051;-81
2023/04/10 11:17:05;;;;;;;9.43;7.30;;;15.50;72.30;;;;;;4788877;30;20107;-81
2023/04/10 11:20:00;;;;;;;10.60;7.97;;;15.60;73.30;;;;;;4788860;30;20055;-81
2023/04/10 11:22:26;;;;;;;9.23;7.30;;;15.60;72.70;;;;;;4789359;29;20059;-85
2023/04/10 11:24:56;;;;;;;10.53;7.67;;;15.60;72.30;;;;;;4789043;30;20326;-83
2023/04/10 11:27:48;;;;;;;10.07;7.67;;;15.70;72.50;;;;;;4773147;30;20485;-85
2023/04/10 11:30:34;;;;;;;9.63;7.07;;;15.70;71.70;;;;;;4788858;30;20531;-83
2023/04/10 11:33:02;;;;;;;12.37;7.77;;;15.70;70.50;;;;;;4772889;30;20304;-92
2023/04/10 11:35:30;;;;;;;9.13;6.93;;;15.70;72.40;;;;;;4789048;30;20112;-84
2023/04/10 11:38:15;;;;;;;9.67;6.80;;;15.80;71.50;;;;;;4772603;30;20048;-85
2023/04/10 11:41:03;;;;;;;9.30;7.23;;;15.80;70.40;;;;;;4789057;30;20052;-85
2023/04/10 11:43:29;;;;;;;10.17;6.60;;;15.80;70.10;;;;;;4788647;30;20047;-85
2023/04/10 11:46:13;;;;;;;10.47;7.13;;;15.80;71.60;;;;;;4772691;30;20301;-86
2023/04/10 11:48:39;;;;;;;9.33;7.20;;;15.80;70.40;;;;;;4788920;30;20090;-86
2023/04/10 11:51:10;;;;;;;9.67;7.40;;;15.80;71.10;;;;;;4788478;30;20499;-83
2023/04/10 11:53:36;;;;;;;8.30;5.80;;;15.80;71.00;;;;;;4788583;30;20131;-86
2023/04/10 11:56:01;;;;;;;7.83;6.23;;;15.90;71.90;;;;;;4788446;30;20092;-88
2023/04/10 11:58:32;;;;;;;9.30;7.07;;;16.10;71.30;;;;;;4772882;30;20044;-86
2023/04/10 12:01:03;;;;;;;8.83;6.87;;;16.10;68.60;;;;;;4772310;30;20070;-85
2023/04/10 12:03:36;;;;;;;8.87;6.67;;;16.10;70.40;;;;;;4788843;30;20051;-86
2023/04/10 12:06:05;;;;;;;8.97;6.67;;;16.10;71.40;;;;;;4788309;30;20059;-82
2023/04/10 12:08:35;;;;;;;8.33;6.27;;;16.20;71.10;;;;;;4788383;30;20048;-77
2023/04/10 12:11:02;;;;;;;8.43;6.20;;;16.30;70.30;;;;;;4758667;30;20396;-83
2023/04/10 12:13:28;;;;;;;9.40;5.90;;;16.30;70.30;;;;;;4788276;29;20047;-85
2023/04/10 12:15:59;;;;;;;7.50;6.10;;;16.30;69.00;;;;;;4788265;30;20138;-84
2023/04/10 12:18:25;;;;;;;8.90;6.50;;;16.30;69.90;;;;;;4772977;30;20051;-83
2023/04/10 12:20:55;;;;;;;7.77;5.90;;;16.30;68.60;;;;;;4788732;29;20053;-85
2023/04/10 12:23:25;;;;;;;8.20;6.10;;;16.30;69.70;;;;;;4772058;30;20047;-83
2023/04/10 12:25:52;;;;;;;11.17;6.13;;;16.20;69.90;;;;;;4788241;30;20146;-83
2023/04/10 12:28:19;;;;;;;8.83;6.00;;;16.20;69.70;;;;;;4772570;30;20055;-83
2023/04/10 12:30:54;;;;;;;8.43;6.20;;;16.10;70.60;;;;;;4788154;30;20054;-85
2023/04/10 12:33:24;;;;;;;9.75;6.22;;;16.20;70.20;;;;;;4788944;30;20043;-75
2023/04/10 12:35:51;;;;;;;11.00;6.30;;;16.10;70.80;;;;;;4788250;30;20055;-82
2023/04/10 12:38:42;;;;;;;8.40;6.43;;;16.10;71.30;;;;;;4789116;30;20055;-84
2023/04/10 12:41:11;;;;;;;8.57;5.90;;;16.00;69.70;;;;;;4788064;30;20055;-86